Time;durP1;ratioP1;P1;durP2;ratioP2;P2;SDS_P1;SDS_P2;PMS_P1;PMS_P2;Temp;Humidity;BMP_temperature;BMP_pressure;BME280_temperature;BME280_humidity;BME280_pressure;Samples;Min_cycle;Max_cycle;Signal;HPM_P1;HPM_P2
2022/02/28 00:00:39;;;;;;;;;;;-0.30;85.80;;;;;;5141180;28;19921;-76
2022/02/28 00:03:11;;;;;;;;;;;-0.40;85.80;;;;;;5143272;28;19930;-76
2022/02/28 00:05:44;;;;;;;;;;;-0.40;85.30;;;;;;5108310;28;20902;-76
2022/02/28 00:08:17;;;;;;;;;;;-0.40;85.80;;;;;;5132429;28;19930;-77
2022/02/28 00:10:49;;;;;;;;;;;-0.40;85.90;;;;;;5142000;28;19925;-76
2022/02/28 00:13:21;;;;;;;;;;;-0.40;85.10;;;;;;5142876;28;19926;-76
2022/02/28 00:15:53;;;;;;;;;;;-0.50;85.90;;;;;;5143886;28;19926;-76
2022/02/28 00:18:26;;;;;;;;;;;-0.50;86.40;;;;;;5130411;28;19933;-76
2022/02/28 00:20:58;;;;;;;;;;;-0.60;85.40;;;;;;5140072;28;19925;-76
2022/02/28 00:23:31;;;;;;;;;;;-0.50;85.70;;;;;;5143602;28;19921;-76
2022/02/28 00:26:04;;;;;;;;;;;-0.60;85.90;;;;;;5138240;28;20464;-76
2022/02/28 00:28:37;;;;;;;;;;;-0.60;85.50;;;;;;5143977;28;19922;-77
2022/02/28 00:31:09;;;;;;;;;;;-0.70;85.80;;;;;;5140957;28;19926;-77
2022/02/28 00:33:42;;;;;;;;;;;-0.60;86.60;;;;;;5156636;28;19933;-76
2022/02/28 00:36:14;;;;;;;;;;;-0.70;86.70;;;;;;5154592;28;19921;-76
2022/02/28 00:38:46;;;;;;;;;;;-0.60;87.40;;;;;;5114963;28;20275;-76
2022/02/28 00:41:18;;;;;;;;;;;-0.70;86.80;;;;;;5140054;28;19929;-76
2022/02/28 00:43:51;;;;;;;;;;;-0.80;87.60;;;;;;5142750;28;20870;-77
2022/02/28 00:46:25;;;;;;;;;;;-0.70;87.80;;;;;;5144275;28;19926;-76
2022/02/28 00:48:57;;;;;;;;;;;-0.70;87.00;;;;;;5131134;28;19922;-76
2022/02/28 00:51:29;;;;;;;;;;;-0.90;86.90;;;;;;5121267;28;19926;-76
2022/02/28 00:54:02;;;;;;;;;;;-0.90;86.90;;;;;;5140227;28;19929;-76
2022/02/28 00:56:34;;;;;;;;;;;-1.10;86.30;;;;;;5124216;28;19933;-76
2022/02/28 00:59:06;;;;;;;;;;;-1.20;88.50;;;;;;5123743;28;19926;-77
2022/02/28 01:01:39;;;;;;;;;;;-1.20;88.20;;;;;;5119372;28;19952;-76
2022/02/28 01:04:11;;;;;;;;;;;-1.20;88.00;;;;;;5144798;28;19921;-76
2022/02/28 01:06:43;;;;;;;;;;;-1.30;88.20;;;;;;5141827;28;19948;-76
2022/02/28 01:09:16;;;;;;;;;;;-1.40;88.70;;;;;;5140152;28;20800;-76
2022/02/28 01:11:50;;;;;;;;;;;-1.30;90.00;;;;;;5124692;28;19925;-76
2022/02/28 01:14:22;;;;;;;;;;;-0.90;90.20;;;;;;5126388;28;19926;-76
2022/02/28 01:16:55;;;;;;;;;;;-1.20;89.20;;;;;;5125506;28;20472;-76
2022/02/28 01:19:28;;;;;;;;;;;-0.30;89.80;;;;;;5131264;28;19918;-77
2022/02/28 01:22:00;;;;;;;;;;;-1.00;89.50;;;;;;5142968;28;19929;-76
2022/02/28 01:24:32;;;;;;;;;;;-0.90;89.10;;;;;;5132682;28;19930;-76
2022/02/28 01:27:04;;;;;;;;;;;-1.20;89.60;;;;;;5144648;28;19936;-77
2022/02/28 01:29:37;;;;;;;;;;;-1.20;90.10;;;;;;5109867;28;20059;-76
2022/02/28 01:32:09;;;;;;;;;;;-1.20;89.30;;;;;;5113593;28;19926;-76
2022/02/28 01:34:42;;;;;;;;;;;-1.10;89.20;;;;;;5124647;28;19925;-76
2022/02/28 01:37:14;;;;;;;;;;;-1.10;90.10;;;;;;5142727;28;19930;-77
2022/02/28 01:39:46;;;;;;;;;;;-1.10;89.30;;;;;;5156963;28;19921;-76
2022/02/28 01:42:19;;;;;;;;;;;-1.20;89.30;;;;;;5137828;28;19941;-77
2022/02/28 01:44:51;;;;;;;;;;;-1.20;89.30;;;;;;5137939;28;20337;-76
2022/02/28 01:47:24;;;;;;;;;;;-1.20;89.50;;;;;;5149413;28;20270;-76
2022/02/28 01:49:56;;;;;;;;;;;-1.00;89.60;;;;;;5131957;28;19925;-76
2022/02/28 01:52:28;;;;;;;;;;;-1.10;90.00;;;;;;5150962;28;19937;-76
2022/02/28 01:55:01;;;;;;;;;;;-1.00;90.10;;;;;;5119926;28;19933;-76
2022/02/28 01:57:34;;;;;;;;;;;-1.20;90.00;;;;;;5127150;28;19937;-76
2022/02/28 02:00:08;;;;;;;;;;;0.70;90.60;;;;;;5132455;28;19933;-77
2022/02/28 02:02:44;;;;;;;;;;;-1.30;90.00;;;;;;5143619;28;20385;-75
2022/02/28 02:05:17;;;;;;;;;;;-0.70;90.10;;;;;;5163868;23;20362;-33
2022/02/28 02:07:50;;;;;;;;;;;-1.30;90.10;;;;;;5167561;28;19925;-33
2022/02/28 02:10:23;;;;;;;;;;;-0.20;90.70;;;;;;5183120;28;20561;-32
2022/02/28 02:12:56;;;;;;;;;;;-1.40;90.60;;;;;;5183516;28;19948;-32
2022/02/28 02:15:28;;;;;;;;;;;-1.40;90.30;;;;;;5184804;28;19925;-32
2022/02/28 02:18:04;;;;;;;;;;;-1.40;90.40;;;;;;5158107;28;20320;-33
2022/02/28 02:20:38;;;;;;;;;;;-1.50;90.10;;;;;;5171307;28;20286;-32
2022/02/28 02:23:13;;;;;;;;;;;-1.40;90.30;;;;;;5182345;28;19925;-33
2022/02/28 02:25:46;;;;;;;;;;;-1.40;90.30;;;;;;5184154;28;19936;-32
2022/02/28 02:28:23;;;;;;;;;;;-1.40;90.50;;;;;;5170231;28;19928;-32
2022/02/28 02:30:56;;;;;;;;;;;-1.50;90.30;;;;;;5186468;28;19929;-32
2022/02/28 02:33:29;;;;;;;;;;;-1.50;90.30;;;;;;5173152;28;19925;-32
2022/02/28 02:36:05;;;;;;;;;;;-1.20;90.80;;;;;;5184675;28;19936;-32
2022/02/28 02:38:39;;;;;;;;;;;-1.50;90.50;;;;;;5169175;28;19927;-32
2022/02/28 02:41:11;;;;;;;;;;;-1.50;90.80;;;;;;5168846;28;19925;-33
2022/02/28 02:43:44;;;;;;;;;;;-1.50;90.90;;;;;;5169013;28;20380;-32
2022/02/28 02:46:19;;;;;;;;;;;-1.60;91.00;;;;;;5171464;28;19924;-32
2022/02/28 02:49:00;;;;;;;;;;;-1.50;90.90;;;;;;5168016;28;19924;-32
2022/02/28 02:51:33;;;;;;;;;;;-1.60;91.10;;;;;;5178832;28;19921;-32
2022/02/28 02:54:06;;;;;;;;;;;-1.60;91.20;;;;;;5175576;28;19925;-32
2022/02/28 02:56:38;;;;;;;;;;;-1.70;91.10;;;;;;5167670;28;20420;-33
2022/02/28 02:59:11;;;;;;;;;;;-1.60;91.40;;;;;;5171838;28;19925;-32
2022/02/28 03:01:43;;;;;;;;;;;-1.70;91.00;;;;;;5166868;28;19930;-33
2022/02/28 03:04:15;;;;;;;;;;;-1.80;91.30;;;;;;5172715;28;19925;-32
2022/02/28 03:06:48;;;;;;;;;;;-1.90;91.30;;;;;;5181977;28;19925;-32
2022/02/28 03:09:21;;;;;;;;;;;-1.70;91.50;;;;;;5170338;28;19925;-32
2022/02/28 03:11:53;;;;;;;;;;;-1.90;92.10;;;;;;5185813;28;19921;-32
2022/02/28 03:14:27;;;;;;;;;;;-1.90;91.70;;;;;;5158566;28;20159;-33
2022/02/28 03:16:59;;;;;;;;;;;-1.80;91.80;;;;;;5165579;28;19925;-32
2022/02/28 03:19:32;;;;;;;;;;;-1.80;91.40;;;;;;5166704;28;19928;-32
2022/02/28 03:22:04;;;;;;;;;;;-1.80;91.60;;;;;;5171940;28;19921;-32
2022/02/28 03:24:41;;;;;;;;;;;-1.90;91.60;;;;;;5169404;23;19922;-44
2022/02/28 03:27:13;;;;;;;;;;;-1.80;91.90;;;;;;5174533;28;19926;-44
2022/02/28 03:29:50;;;;;;;;;;;-1.60;92.10;;;;;;5165849;28;19926;-39
2022/02/28 03:32:22;;;;;;;;;;;-1.80;91.90;;;;;;5160230;28;19951;-45
2022/02/28 03:34:55;;;;;;;;;;;-1.80;92.00;;;;;;5158391;28;20227;-43
2022/02/28 03:37:28;;;;;;;;;;;-1.80;92.40;;;;;;5163336;28;19921;-44
2022/02/28 03:40:01;;;;;;;;;;;-1.80;92.20;;;;;;5160068;28;20302;-39
2022/02/28 03:42:37;;;;;;;;;;;-1.80;92.30;;;;;;5178814;28;19932;-39
2022/02/28 03:45:10;;;;;;;;;;;-1.70;92.10;;;;;;5164360;28;19925;-45
2022/02/28 03:47:42;;;;;;;;;;;-1.80;92.00;;;;;;5162157;28;19921;-42
2022/02/28 03:50:46;;;;;;;;;;;-1.70;92.10;;;;;;5162151;28;19929;-41
2022/02/28 03:53:18;;;;;;;;;;;-1.70;91.90;;;;;;5177769;28;19948;-42
2022/02/28 03:55:51;;;;;;;;;;;-1.30;92.40;;;;;;5171991;28;19933;-39
2022/02/28 03:58:24;;;;;;;;;;;-1.90;92.20;;;;;;5162796;28;19930;-42
2022/02/28 04:00:56;;;;;;;;;;;-1.80;92.10;;;;;;5179498;28;19925;-42
2022/02/28 04:03:28;;;;;;;;;;;-1.70;92.30;;;;;;5158267;28;19926;-42
2022/02/28 04:06:01;;;;;;;;;;;-2.30;92.30;;;;;;5178804;28;19928;-43
2022/02/28 04:08:34;;;;;;;;;;;-2.00;92.20;;;;;;5146194;28;19926;-46
2022/02/28 04:11:06;;;;;;;;;;;-1.60;92.20;;;;;;5177016;28;20397;-43
2022/02/28 04:13:40;;;;;;;;;;;-2.30;92.30;;;;;;5178799;28;19929;-45
2022/02/28 04:16:14;;;;;;;;;;;-2.30;92.60;;;;;;5178627;28;19926;-40
2022/02/28 04:19:06;;;;;;;;;;;-1.40;92.40;;;;;;5159935;28;20333;-40
2022/02/28 04:21:53;;;;;;;;;;;-2.10;92.40;;;;;;5160790;28;19956;-44
2022/02/28 04:24:26;;;;;;;;;;;-2.10;92.70;;;;;;5174692;28;19930;-39
2022/02/28 04:27:00;;;;;;;;;;;-1.90;93.00;;;;;;5166290;28;19925;-38
2022/02/28 04:29:32;;;;;;;;;;;-2.10;92.50;;;;;;5158904;28;19925;-38
2022/02/28 04:32:11;;;;;;;;;;;-2.30;92.80;;;;;;5159784;28;19932;-41
2022/02/28 04:34:51;;;;;;;;;;;-1.60;92.90;;;;;;5176307;28;19926;-45
2022/02/28 04:37:25;;;;;;;;;;;-2.10;92.90;;;;;;5152855;28;19925;-42
2022/02/28 04:39:57;;;;;;;;;;;-1.70;92.90;;;;;;5159604;28;20220;-39
2022/02/28 04:42:31;;;;;;;;;;;-2.10;92.80;;;;;;5174970;28;19932;-39
2022/02/28 04:45:04;;;;;;;;;;;-1.50;93.00;;;;;;5176969;28;20305;-40
2022/02/28 04:47:36;;;;;;;;;;;-2.10;92.60;;;;;;5177165;28;19929;-41
2022/02/28 04:50:35;;;;;;;;;;;-2.20;92.80;;;;;;5175447;28;19921;-40
2022/02/28 04:53:07;;;;;;;;;;;-2.20;93.10;;;;;;5168719;28;19929;-43
2022/02/28 04:55:41;;;;;;;;;;;-2.20;93.30;;;;;;5172697;28;19929;-44
2022/02/28 04:58:13;;;;;;;;;;;-2.30;93.10;;;;;;5162008;28;19936;-40
2022/02/28 05:01:09;;;;;;;;;;;-2.50;93.20;;;;;;5176013;28;19941;-41
2022/02/28 05:03:44;;;;;;;;;;;-2.30;92.30;;;;;;5174034;28;19928;-44
2022/02/28 05:06:16;;;;;;;;;;;-2.40;92.40;;;;;;5166945;28;20319;-42
2022/02/28 05:08:53;;;;;;;;;;;-2.00;92.90;;;;;;5167940;28;20377;-40
2022/02/28 05:11:26;;;;;;;;;;;-2.30;92.90;;;;;;5144163;28;19929;-42
2022/02/28 05:13:59;;;;;;;;;;;-2.20;92.90;;;;;;5158813;28;19926;-49
2022/02/28 05:16:32;;;;;;;;;;;-2.00;93.10;;;;;;5169658;28;19921;-41
2022/02/28 05:19:05;;;;;;;;;;;-2.40;92.90;;;;;;5179642;28;19926;-40
2022/02/28 05:21:37;;;;;;;;;;;-2.70;92.80;;;;;;5166510;28;19925;-45
2022/02/28 05:24:09;;;;;;;;;;;-2.40;93.20;;;;;;5165614;28;20446;-45
2022/02/28 05:26:43;;;;;;;;;;;-2.10;93.40;;;;;;5174566;28;20412;-45
2022/02/28 05:29:15;;;;;;;;;;;-2.40;93.40;;;;;;5179290;28;19921;-42
2022/02/28 05:31:48;;;;;;;;;;;-2.00;93.80;;;;;;5164318;28;19932;-43
2022/02/28 05:34:38;;;;;;;;;;;-2.40;94.00;;;;;;5169365;28;19929;-44
2022/02/28 05:37:11;;;;;;;;;;;-2.40;94.20;;;;;;5182859;28;19936;-40
2022/02/28 05:39:55;;;;;;;;;;;-2.90;94.00;;;;;;5168306;28;20382;-39
2022/02/28 05:42:32;;;;;;;;;;;-1.90;94.30;;;;;;5163160;28;19948;-39
2022/02/28 05:45:05;;;;;;;;;;;-3.30;93.90;;;;;;5177808;28;19922;-42
2022/02/28 05:47:42;;;;;;;;;;;-2.50;94.60;;;;;;5183060;28;20282;-42
2022/02/28 05:50:17;;;;;;;;;;;-1.90;94.50;;;;;;5156272;28;19925;-39
2022/02/28 05:52:50;;;;;;;;;;;-2.50;94.00;;;;;;5161000;28;19926;-39
2022/02/28 05:55:22;;;;;;;;;;;-3.10;94.10;;;;;;5155751;28;20396;-43
2022/02/28 05:57:56;;;;;;;;;;;-3.40;93.80;;;;;;5164993;28;19929;-42
2022/02/28 06:00:28;;;;;;;;;;;-2.60;94.20;;;;;;5160736;28;20378;-42
2022/02/28 06:03:01;;;;;;;;;;;-2.60;93.70;;;;;;5154221;28;19925;-47
2022/02/28 06:05:33;;;;;;;;;;;-2.50;93.90;;;;;;5161665;28;19932;-48
2022/02/28 06:08:05;;;;;;;;;;;-2.60;94.30;;;;;;5165905;28;19948;-39
2022/02/28 06:10:38;;;;;;;;;;;-2.10;95.00;;;;;;5165599;28;19929;-42
2022/02/28 06:13:10;;;;;;;;;;;-2.00;95.20;;;;;;5167022;28;19922;-40
2022/02/28 06:15:42;;;;;;;;;;;-2.80;94.80;;;;;;5167961;28;20245;-47
2022/02/28 06:18:15;;;;;;;;;;;-2.50;94.60;;;;;;5164527;28;19926;-45
2022/02/28 06:20:47;;;;;;;;;;;-2.50;95.10;;;;;;5165290;28;20203;-40
2022/02/28 06:23:20;;;;;;;;;;;-3.20;94.00;;;;;;5168776;28;19957;-44
2022/02/28 06:25:52;;;;;;;;;;;-2.60;94.80;;;;;;5165065;28;19921;-41
2022/02/28 06:28:27;;;;;;;;;;;-2.50;94.50;;;;;;5164322;28;19929;-47
2022/02/28 06:31:00;;;;;;;;;;;-1.80;95.10;;;;;;5159518;28;20064;-42
2022/02/28 06:33:33;;;;;;;;;;;-2.50;94.60;;;;;;5159343;28;20341;-39
2022/02/28 06:36:06;;;;;;;;;;;-2.30;95.00;;;;;;5182140;28;20842;-39
2022/02/28 06:38:38;;;;;;;;;;;-3.10;95.40;;;;;;5168806;28;19921;-42
2022/02/28 06:41:11;;;;;;;;;;;-2.40;96.10;;;;;;5167847;28;19936;-46
2022/02/28 06:43:43;;;;;;;;;;;-1.80;95.40;;;;;;5162763;28;19925;-39
2022/02/28 06:46:15;;;;;;;;;;;-1.80;96.10;;;;;;5166202;28;20420;-41
2022/02/28 06:48:47;;;;;;;;;;;-1.80;95.50;;;;;;5164268;28;20385;-40
2022/02/28 06:51:19;;;;;;;;;;;-2.70;95.60;;;;;;5166251;28;19928;-47
2022/02/28 06:53:52;;;;;;;;;;;-1.30;95.30;;;;;;5163460;28;19925;-41
2022/02/28 06:56:24;;;;;;;;;;;-2.20;96.10;;;;;;5166470;28;19922;-43
2022/02/28 06:58:56;;;;;;;;;;;-1.50;96.40;;;;;;5165840;28;19921;-39
2022/02/28 07:01:32;;;;;;;;;;;-1.80;96.40;;;;;;5147438;28;19944;-46
2022/02/28 07:04:25;;;;;;;;;;;-2.00;96.20;;;;;;5157878;28;19934;-41
2022/02/28 07:06:57;;;;;;;;;;;-1.90;96.30;;;;;;5174272;28;19930;-40
2022/02/28 07:09:30;;;;;;;;;;;-1.10;96.60;;;;;;5162934;28;19929;-42
2022/02/28 07:12:02;;;;;;;;;;;-1.10;96.60;;;;;;5160077;28;20745;-42
2022/02/28 07:14:36;;;;;;;;;;;-1.90;96.90;;;;;;5162260;28;19933;-43
2022/02/28 07:17:08;;;;;;;;;;;-1.80;96.80;;;;;;5164921;28;20586;-43
2022/02/28 07:19:40;;;;;;;;;;;-1.60;97.20;;;;;;5161275;28;19930;-44
2022/02/28 07:22:13;;;;;;;;;;;-1.60;97.20;;;;;;5163975;28;20393;-43
2022/02/28 07:24:45;;;;;;;;;;;-1.80;96.70;;;;;;5159636;28;20409;-41
2022/02/28 07:27:17;;;;;;;;;;;-1.60;97.30;;;;;;5158636;28;20298;-42
2022/02/28 07:29:49;;;;;;;;;;;-1.70;97.00;;;;;;5150663;28;19926;-41
2022/02/28 07:32:21;;;;;;;;;;;-1.30;97.40;;;;;;5159588;28;19929;-42
2022/02/28 07:34:54;;;;;;;;;;;-1.40;96.60;;;;;;5157761;28;19925;-42
2022/02/28 07:37:26;;;;;;;;;;;-1.20;96.80;;;;;;5157289;28;20008;-47
2022/02/28 07:39:58;;;;;;;;;;;0.00;97.10;;;;;;5158147;28;19925;-41
2022/02/28 07:42:30;;;;;;;;;;;-0.50;97.20;;;;;;5161283;28;19922;-43
2022/02/28 07:45:04;;;;;;;;;;;-1.10;96.70;;;;;;5161194;28;19926;-39
2022/02/28 07:47:36;;;;;;;;;;;-1.00;96.70;;;;;;5158916;28;20175;-46
2022/02/28 07:50:09;;;;;;;;;;;0.30;97.00;;;;;;5160131;28;20567;-38
2022/02/28 07:52:41;;;;;;;;;;;-0.90;95.90;;;;;;5160700;28;19930;-48
2022/02/28 07:55:13;;;;;;;;;;;0.10;96.20;;;;;;5159024;28;19933;-41
2022/02/28 07:57:45;;;;;;;;;;;0.50;95.80;;;;;;5162470;28;19944;-43
2022/02/28 08:00:18;;;;;;;;;;;-0.10;95.90;;;;;;5158952;28;19937;-40
2022/02/28 08:02:52;;;;;;;;;;;-0.80;95.90;;;;;;5158232;28;19937;-45
2022/02/28 08:05:24;;;;;;;;;;;-0.60;95.70;;;;;;5158994;28;19926;-47
2022/02/28 08:07:56;;;;;;;;;;;0.80;95.70;;;;;;5159210;28;19925;-40
2022/02/28 08:10:29;;;;;;;;;;;-0.60;94.90;;;;;;5160091;28;19937;-43
2022/02/28 08:13:01;;;;;;;;;;;-0.30;93.70;;;;;;5169197;28;19925;-42
2022/02/28 08:15:34;;;;;;;;;;;-0.20;93.80;;;;;;5163325;28;19925;-44
2022/02/28 08:18:07;;;;;;;;;;;0.70;94.20;;;;;;5164961;28;19926;-41
2022/02/28 08:20:39;;;;;;;;;;;0.80;94.40;;;;;;5160677;28;19925;-42
2022/02/28 08:23:11;;;;;;;;;;;0.80;94.60;;;;;;5161649;28;19933;-39
2022/02/28 08:25:45;;;;;;;;;;;0.70;94.10;;;;;;5178373;28;19928;-43
2022/02/28 08:28:19;;;;;;;;;;;0.30;93.70;;;;;;5159667;28;20420;-47
2022/02/28 08:30:51;;;;;;;;;;;0.60;94.10;;;;;;5160771;28;19948;-48
2022/02/28 08:33:23;;;;;;;;;;;-0.20;93.50;;;;;;5154842;28;19929;-40
2022/02/28 08:35:56;;;;;;;;;;;0.50;93.90;;;;;;5160808;28;19925;-40
2022/02/28 08:38:28;;;;;;;;;;;0.30;93.50;;;;;;5159092;28;19930;-43
2022/02/28 08:41:00;;;;;;;;;;;1.00;93.00;;;;;;5159563;28;20412;-42
2022/02/28 08:43:32;;;;;;;;;;;0.70;93.20;;;;;;5153193;28;19932;-46
2022/02/28 08:46:05;;;;;;;;;;;0.60;92.90;;;;;;5151942;28;19929;-42
2022/02/28 08:48:37;;;;;;;;;;;1.20;93.60;;;;;;5153378;28;19929;-43
2022/02/28 08:51:09;;;;;;;;;;;1.00;93.60;;;;;;5156904;28;19960;-39
2022/02/28 08:53:41;;;;;;;;;;;0.80;93.00;;;;;;5159038;28;19925;-46
2022/02/28 08:56:14;;;;;;;;;;;0.60;93.20;;;;;;5158863;28;19937;-42
2022/02/28 08:58:46;;;;;;;;;;;1.00;92.70;;;;;;5159115;28;20377;-41
2022/02/28 09:01:18;;;;;;;;;;;0.90;92.10;;;;;;5149981;28;19929;-41
2022/02/28 09:03:51;;;;;;;;;;;1.00;92.90;;;;;;5160303;28;19928;-44
2022/02/28 09:06:23;;;;;;;;;;;1.00;92.10;;;;;;5158943;28;19932;-40
2022/02/28 09:08:56;;;;;;;;;;;1.20;92.70;;;;;;5157371;28;20308;-44
2022/02/28 09:11:29;;;;;;;;;;;1.20;91.20;;;;;;5157769;28;19941;-41
2022/02/28 09:14:01;;;;;;;;;;;1.00;91.00;;;;;;5160205;28;19925;-40
2022/02/28 09:16:33;;;;;;;;;;;1.40;91.00;;;;;;5157363;28;19922;-40
2022/02/28 09:19:06;;;;;;;;;;;2.40;91.00;;;;;;5158810;28;20096;-39
2022/02/28 09:21:39;;;;;;;;;;;2.60;90.80;;;;;;5157008;28;19929;-45
2022/02/28 09:24:11;;;;;;;;;;;2.20;90.60;;;;;;5156817;28;19922;-44
2022/02/28 09:26:44;;;;;;;;;;;1.60;90.10;;;;;;5172578;23;19925;-84
2022/02/28 09:29:17;;;;;;;;;;;1.90;90.30;;;;;;5167750;28;19933;-84
2022/02/28 09:31:49;;;;;;;;;;;1.70;88.20;;;;;;5157676;28;19936;-84
2022/02/28 09:34:21;;;;;;;;;;;2.40;86.60;;;;;;5149301;28;19931;-84
2022/02/28 09:36:54;;;;;;;;;;;2.00;87.40;;;;;;5167548;28;19928;-84
2022/02/28 09:39:26;;;;;;;;;;;2.50;88.40;;;;;;5160722;28;19929;-85
2022/02/28 09:42:25;;;;;;;;;;;2.10;86.40;;;;;;5141188;28;20756;-85
2022/02/28 09:45:16;;;;;;;;;;;2.20;84.70;;;;;;5163934;28;19930;-85
2022/02/28 09:48:15;;;;;;;;;;;2.30;83.20;;;;;;5163269;28;19921;-84
2022/02/28 09:51:14;;;;;;;;;;;2.30;82.50;;;;;;5126579;28;19936;-84
2022/02/28 09:54:09;;;;;;;;;;;2.40;81.80;;;;;;5116971;28;19921;-84
2022/02/28 09:57:08;;;;;;;;;;;3.10;79.90;;;;;;5155366;28;19925;-84
2022/02/28 10:00:03;;;;;;;;;;;2.60;79.90;;;;;;5146786;28;19925;-83
2022/02/28 10:02:46;;;;;;;;;;;2.70;79.70;;;;;;5180710;28;20064;-84
2022/02/28 10:05:21;;;;;;;;;;;2.70;80.10;;;;;;5164516;28;19925;-84
2022/02/28 10:07:54;;;;;;;;;;;3.20;80.70;;;;;;5181399;28;20405;-85
2022/02/28 10:10:27;;;;;;;;;;;2.90;77.90;;;;;;5160003;28;19926;-83
2022/02/28 10:12:59;;;;;;;;;;;2.90;77.80;;;;;;5175186;28;19955;-82
2022/02/28 10:15:31;;;;;;;;;;;2.90;75.70;;;;;;5162952;28;19935;-84
2022/02/28 10:18:04;;;;;;;;;;;3.40;73.80;;;;;;5168956;28;19922;-84
2022/02/28 10:20:38;;;;;;;;;;;3.10;73.70;;;;;;5137471;28;20278;-84
2022/02/28 10:23:12;;;;;;;;;;;3.50;75.40;;;;;;5166975;28;19936;-84
2022/02/28 10:26:02;;;;;;;;;;;3.30;73.90;;;;;;5178298;28;20304;-84
2022/02/28 10:29:05;;;;;;;;;;;3.90;73.90;;;;;;5166783;28;19929;-84
2022/02/28 10:32:04;;;;;;;;;;;3.70;72.90;;;;;;5165180;28;20085;-86
2022/02/28 10:38:16;;;;;;;;;;;3.70;71.80;;;;;;5178079;28;19930;-89
2022/02/28 10:40:48;;;;;;;;;;;3.90;71.80;;;;;;5172597;28;19918;-90
2022/02/28 10:43:23;;;;;;;;;;;4.00;71.50;;;;;;5158252;28;20396;-89
2022/02/28 10:45:56;;;;;;;;;;;3.90;68.30;;;;;;5164728;28;19922;-87
2022/02/28 10:48:28;;;;;;;;;;;4.30;69.20;;;;;;5171341;28;19933;-86
2022/02/28 10:51:01;;;;;;;;;;;4.10;70.20;;;;;;5176085;28;20305;-87
2022/02/28 10:53:36;;;;;;;;;;;4.20;68.10;;;;;;5174669;28;21265;-86
2022/02/28 10:56:08;;;;;;;;;;;4.40;67.70;;;;;;5163379;28;20543;-86
2022/02/28 10:58:41;;;;;;;;;;;4.40;68.70;;;;;;5158851;28;19934;-87
2022/02/28 11:01:16;;;;;;;;;;;6.60;70.00;;;;;;5166273;28;19926;-87
2022/02/28 11:03:49;;;;;;;;;;;4.50;67.70;;;;;;5158022;28;20532;-86
2022/02/28 11:06:24;;;;;;;;;;;4.40;67.80;;;;;;5164887;28;19933;-88
2022/02/28 11:08:56;;;;;;;;;;;4.50;67.80;;;;;;5160188;28;19926;-86
2022/02/28 11:11:29;;;;;;;;;;;4.60;67.90;;;;;;5169872;28;19928;-87
2022/02/28 11:14:01;;;;;;;;;;;4.60;65.30;;;;;;5154342;28;19929;-89
2022/02/28 11:16:34;;;;;;;;;;;4.20;66.60;;;;;;5176059;28;19945;-88
2022/02/28 11:19:06;;;;;;;;;;;5.90;65.80;;;;;;5162172;28;20275;-87
2022/02/28 11:21:39;;;;;;;;;;;4.70;65.30;;;;;;5183484;28;19921;-87
2022/02/28 11:24:11;;;;;;;;;;;4.80;66.60;;;;;;5185117;28;20360;-87
2022/02/28 11:26:44;;;;;;;;;;;4.90;66.50;;;;;;5131452;28;1103165;-87
2022/02/28 11:29:19;;;;;;;;;;;4.90;66.50;;;;;;5202054;28;19968;-89
2022/02/28 11:31:54;;;;;;;;;;;5.00;65.80;;;;;;5183312;28;19925;-87
2022/02/28 11:34:27;;;;;;;;;;;4.90;65.20;;;;;;5161244;28;20308;-87
2022/02/28 11:37:01;;;;;;;;;;;4.90;68.60;;;;;;5158291;28;19925;-86
2022/02/28 11:39:35;;;;;;;;;;;4.90;65.40;;;;;;5177182;28;19922;-87
2022/02/28 11:42:08;;;;;;;;;;;5.10;65.60;;;;;;5193210;28;20253;-87
2022/02/28 11:44:54;;;;;;;;;;;5.30;64.70;;;;;;5159837;28;20274;-86
2022/02/28 11:47:29;;;;;;;;;;;5.20;68.10;;;;;;5157922;28;19929;-87
2022/02/28 11:50:17;;;;;;;;;;;5.30;67.90;;;;;;5173751;28;20199;-86
2022/02/28 11:52:50;;;;;;;;;;;5.40;66.20;;;;;;5163397;28;19929;-87
2022/02/28 11:55:29;;;;;;;;;;;5.40;68.10;;;;;;5166610;28;19921;-87
2022/02/28 11:58:14;;;;;;;;;;;5.40;67.20;;;;;;5157931;28;20447;-87
2022/02/28 12:00:47;;;;;;;;;;;5.20;65.30;;;;;;5189519;28;19921;-87
2022/02/28 12:03:22;;;;;;;;;;;5.20;67.30;;;;;;5162822;28;20377;-84
2022/02/28 12:05:54;;;;;;;;;;;5.30;69.00;;;;;;5174562;28;20468;-85
2022/02/28 12:08:34;;;;;;;;;;;5.30;66.90;;;;;;5183225;28;19925;-84
2022/02/28 12:11:20;;;;;;;;;;;5.40;67.00;;;;;;5183111;28;19945;-86
2022/02/28 12:14:03;;;;;;;;;;;5.40;65.60;;;;;;5176786;28;19944;-84
2022/02/28 12:19:31;;;;;;;;;;;5.40;65.20;;;;;;5170292;28;19951;-84
2022/02/28 12:22:05;;;;;;;;;;;5.40;66.10;;;;;;5173289;28;20038;-83
2022/02/28 12:24:55;;;;;;;;;;;5.50;66.10;;;;;;5146770;28;19933;-84
2022/02/28 12:27:30;;;;;;;;;;;5.50;63.80;;;;;;5169059;28;19948;-82
2022/02/28 12:30:21;;;;;;;;;;;5.50;63.20;;;;;;5169277;28;19936;-85
2022/02/28 12:32:53;;;;;;;;;;;5.50;63.80;;;;;;5165063;28;19929;-84
2022/02/28 12:35:35;;;;;;;;;;;5.50;64.30;;;;;;5156070;28;20435;-85
2022/02/28 12:38:07;;;;;;;;;;;5.60;63.30;;;;;;5169006;28;19925;-84
2022/02/28 12:40:51;;;;;;;;;;;5.60;64.10;;;;;;5171660;28;20018;-84
2022/02/28 12:43:24;;;;;;;;;;;5.70;63.70;;;;;;5161975;28;19926;-84
2022/02/28 12:45:58;;;;;;;;;;;5.50;63.30;;;;;;5176380;28;19953;-85
2022/02/28 12:48:30;;;;;;;;;;;5.60;62.60;;;;;;5174810;28;19925;-84
2022/02/28 12:51:04;;;;;;;;;;;5.60;63.20;;;;;;5174613;28;19937;-84
2022/02/28 12:53:37;;;;;;;;;;;5.70;64.00;;;;;;5172985;28;19926;-83
2022/02/28 12:56:18;;;;;;;;;;;5.60;65.70;;;;;;5178403;28;19925;-84
2022/02/28 12:58:51;;;;;;;;;;;5.60;62.90;;;;;;5158270;28;19921;-84
2022/02/28 13:01:24;;;;;;;;;;;5.70;62.20;;;;;;5174580;28;20385;-85
2022/02/28 13:03:58;;;;;;;;;;;5.60;63.50;;;;;;5172446;28;19932;-83
2022/02/28 13:06:31;;;;;;;;;;;5.70;62.90;;;;;;5173497;28;19929;-84
2022/02/28 13:09:08;;;;;;;;;;;5.80;62.20;;;;;;5195767;28;20440;-81
2022/02/28 13:11:51;;;;;;;;;;;5.70;61.60;;;;;;5183814;28;20602;-84
2022/02/28 13:14:24;;;;;;;;;;;5.70;63.10;;;;;;5162152;28;20377;-82
2022/02/28 13:16:57;;;;;;;;;;;5.80;63.10;;;;;;5176321;28;19945;-84
2022/02/28 13:19:31;;;;;;;;;;;5.80;62.50;;;;;;5166276;28;19944;-83
2022/02/28 13:22:04;;;;;;;;;;;5.80;63.10;;;;;;5182678;28;19922;-83
2022/02/28 13:24:39;;;;;;;;;;;5.70;62.10;;;;;;5163020;28;20207;-83
2022/02/28 13:27:12;;;;;;;;;;;5.80;61.70;;;;;;5168840;22;19936;-40
2022/02/28 13:29:44;;;;;;;;;;;5.70;61.40;;;;;;5181503;28;19924;-44
2022/02/28 13:32:19;;;;;;;;;;;5.70;62.80;;;;;;5183253;28;19921;-44
2022/02/28 13:34:57;;;;;;;;;;;5.70;61.30;;;;;;5182134;28;19921;-44
2022/02/28 13:37:30;;;;;;;;;;;5.80;62.50;;;;;;5186707;28;20413;-40
2022/02/28 13:40:07;;;;;;;;;;;5.70;62.00;;;;;;5187546;28;19925;-43
2022/02/28 13:42:42;;;;;;;;;;;5.80;60.80;;;;;;5206053;23;19924;-83
2022/02/28 13:45:19;;;;;;;;;;;5.80;63.50;;;;;;5189246;28;19928;-85
2022/02/28 13:47:52;;;;;;;;;;;5.90;61.20;;;;;;5166778;28;20093;-83
2022/02/28 13:50:29;;;;;;;;;;;5.80;59.30;;;;;;5161891;28;19921;-83
2022/02/28 13:53:03;;;;;;;;;;;5.80;59.00;;;;;;5169492;28;19937;-84
2022/02/28 13:55:35;;;;;;;;;;;5.80;58.50;;;;;;5179453;22;19924;-40
2022/02/28 13:58:10;;;;;;;;;;;5.80;58.50;;;;;;5188186;28;20126;-41
2022/02/28 14:00:49;;;;;;;;;;;5.80;58.00;;;;;;5168459;28;19921;-44
2022/02/28 14:03:24;;;;;;;;;;;5.80;60.00;;;;;;5184951;28;20039;-42
2022/02/28 14:05:56;;;;;;;;;;;5.80;59.70;;;;;;5190172;28;19932;-44
2022/02/28 14:08:33;;;;;;;;;;;5.90;58.00;;;;;;5174598;22;19926;-84
2022/02/28 14:11:06;;;;;;;;;;;5.90;57.00;;;;;;5135249;28;19925;-83
2022/02/28 14:13:40;;;;;;;;;;;6.00;58.10;;;;;;5149594;28;19925;-83
2022/02/28 14:16:12;;;;;;;;;;;7.20;59.70;;;;;;5148635;28;19929;-82
2022/02/28 14:19:09;;;;;;;;;;;6.00;58.30;;;;;;5170073;28;20408;-83
2022/02/28 14:22:02;;;;;;;;;;;6.10;60.00;;;;;;5173465;28;19925;-85
2022/02/28 14:24:55;;;;;;;;;;;6.10;57.90;;;;;;5161761;28;19933;-84
2022/02/28 14:27:47;;;;;;;;;;;6.20;59.20;;;;;;5165758;28;19930;-83
2022/02/28 14:30:38;;;;;;;;;;;6.60;57.20;;;;;;5156538;28;21192;-85
2022/02/28 14:33:13;;;;;;;;;;;6.00;55.90;;;;;;5153274;28;19925;-85
2022/02/28 14:35:46;;;;;;;;;;;6.00;59.30;;;;;;5164632;28;19925;-83
2022/02/28 14:38:19;;;;;;;;;;;6.20;55.90;;;;;;5164910;28;20808;-85
2022/02/28 14:40:59;;;;;;;;;;;6.10;55.90;;;;;;5139370;28;19925;-85
2022/02/28 14:43:32;;;;;;;;;;;9.50;57.20;;;;;;5161906;28;20540;-84
2022/02/28 14:46:06;;;;;;;;;;;6.10;55.00;;;;;;4795607;28;10000321;-85
2022/02/28 14:48:39;;;;;;;;;;;6.10;54.90;;;;;;4802649;28;9999925;-85
2022/02/28 14:51:11;;;;;;;;;;;6.10;55.70;;;;;;5149596;28;19933;-85
2022/02/28 14:53:45;;;;;;;;;;;7.70;57.80;;;;;;5157438;28;19936;-85
2022/02/28 14:56:18;;;;;;;;;;;6.20;57.50;;;;;;5148180;28;20316;-83
2022/02/28 14:58:50;;;;;;;;;;;6.30;58.10;;;;;;5163901;28;19925;-85
2022/02/28 15:01:25;;;;;;;;;;;6.20;60.30;;;;;;5150209;28;19936;-84
2022/02/28 15:03:58;;;;;;;;;;;6.20;56.90;;;;;;5159515;28;20404;-84
2022/02/28 15:06:31;;;;;;;;;;;6.20;57.80;;;;;;5152977;28;20452;-85
2022/02/28 15:09:03;;;;;;;;;;;6.20;57.30;;;;;;5148116;28;21202;-86
2022/02/28 15:11:36;;;;;;;;;;;5.50;57.50;;;;;;5122074;28;19925;-85
2022/02/28 15:14:09;;;;;;;;;;;6.20;58.20;;;;;;5154227;28;19926;-84